sensor_id;sensor_type;location;lat;lon;timestamp;pressure;altitude;pressure_sealevel;temperature;humidity
6204;BME280;3135;42.602;23.468;2022-07-06T00:01:54;93010.25;;;19.10;100.00
6204;BME280;3135;42.602;23.468;2022-07-06T00:04:19;93032.59;;;19.07;100.00
6204;BME280;3135;42.602;23.468;2022-07-06T00:06:45;93036.78;;;19.17;100.00
6204;BME280;3135;42.602;23.468;2022-07-06T00:09:10;93038.13;;;19.11;100.00
6204;BME280;3135;42.602;23.468;2022-07-06T00:11:36;93037.69;;;19.21;100.00
6204;BME280;3135;42.602;23.468;2022-07-06T00:14:02;93033.53;;;19.48;100.00
6204;BME280;3135;42.602;23.468;2022-07-06T00:16:28;93028.44;;;19.47;100.00
6204;BME280;3135;42.602;23.468;2022-07-06T00:18:53;93031.88;;;19.68;100.00
6204;BME280;3135;42.602;23.468;2022-07-06T00:21:19;93039.41;;;19.87;100.00
6204;BME280;3135;42.602;23.468;2022-07-06T00:23:44;93037.25;;;19.80;100.00
6204;BME280;3135;42.602;23.468;2022-07-06T00:26:10;93044.06;;;19.86;100.00
6204;BME280;3135;42.602;23.468;2022-07-06T00:28:35;93037.72;;;19.58;100.00
6204;BME280;3135;42.602;23.468;2022-07-06T00:31:01;93042.25;;;19.66;100.00
6204;BME280;3135;42.602;23.468;2022-07-06T00:33:26;93037.06;;;19.61;100.00
6204;BME280;3135;42.602;23.468;2022-07-06T00:35:52;93046.41;;;19.76;100.00
6204;BME280;3135;42.602;23.468;2022-07-06T00:38:17;93048.56;;;19.70;100.00
6204;BME280;3135;42.602;23.468;2022-07-06T00:40:43;93046.41;;;19.76;100.00
6204;BME280;3135;42.602;23.468;2022-07-06T00:43:08;93057.19;;;19.72;100.00
6204;BME280;3135;42.602;23.468;2022-07-06T00:45:34;93055.81;;;19.66;100.00
6204;BME280;3135;42.602;23.468;2022-07-06T00:47:59;93065.75;;;19.86;100.00
6204;BME280;3135;42.602;23.468;2022-07-06T00:50:25;92998.16;;;19.57;100.00
6204;BME280;3135;42.602;23.468;2022-07-06T00:52:59;93054.56;;;19.88;100.00
6204;BME280;3135;42.602;23.468;2022-07-06T00:55:28;93018.53;;;19.75;100.00
6204;BME280;3135;42.602;23.468;2022-07-06T00:57:55;93041.81;;;19.76;100.00
6204;BME280;3135;42.602;23.468;2022-07-06T01:00:23;93039.75;;;19.61;100.00
6204;BME280;3135;42.602;23.468;2022-07-06T01:02:49;93035.09;;;19.37;100.00
6204;BME280;3135;42.602;23.468;2022-07-06T01:05:16;93046.63;;;19.34;100.00
6204;BME280;3135;42.602;23.468;2022-07-06T01:07:44;93040.38;;;19.09;100.00
6204;BME280;3135;42.602;23.468;2022-07-06T01:10:11;93029.41;;;19.05;100.00
6204;BME280;3135;42.602;23.468;2022-07-06T01:12:39;93023.31;;;19.08;100.00
6204;BME280;3135;42.602;23.468;2022-07-06T01:15:07;93033.31;;;19.41;100.00
6204;BME280;3135;42.602;23.468;2022-07-06T01:17:34;93019.88;;;19.20;100.00
6204;BME280;3135;42.602;23.468;2022-07-06T01:20:16;93014.66;;;19.27;100.00
6204;BME280;3135;42.602;23.468;2022-07-06T01:22:43;93032.94;;;19.18;100.00
6204;BME280;3135;42.602;23.468;2022-07-06T01:25:09;93031.72;;;19.15;100.00
6204;BME280;3135;42.602;23.468;2022-07-06T01:27:36;93032.28;;;19.21;100.00
6204;BME280;3135;42.602;23.468;2022-07-06T01:30:10;93040.84;;;19.23;100.00
6204;BME280;3135;42.602;23.468;2022-07-06T01:32:36;93023.03;;;19.34;100.00
6204;BME280;3135;42.602;23.468;2022-07-06T01:35:03;93016.00;;;19.21;100.00
6204;BME280;3135;42.602;23.468;2022-07-06T01:37:30;93029.47;;;19.30;100.00
6204;BME280;3135;42.602;23.468;2022-07-06T01:39:59;93032.38;;;19.37;100.00
6204;BME280;3135;42.602;23.468;2022-07-06T01:42:26;93033.75;;;19.43;100.00
6204;BME280;3135;42.602;23.468;2022-07-06T01:44:51;93014.22;;;19.37;100.00
6204;BME280;3135;42.602;23.468;2022-07-06T01:47:17;93010.81;;;19.28;100.00
6204;BME280;3135;42.602;23.468;2022-07-06T01:49:42;93016.22;;;19.28;100.00
6204;BME280;3135;42.602;23.468;2022-07-06T01:52:08;93028.13;;;19.48;100.00
6204;BME280;3135;42.602;23.468;2022-07-06T01:54:33;93028.91;;;19.49;100.00
6204;BME280;3135;42.602;23.468;2022-07-06T01:56:59;93035.22;;;19.40;100.00
6204;BME280;3135;42.602;23.468;2022-07-06T01:59:24;93037.25;;;19.44;100.00
6204;BME280;3135;42.602;23.468;2022-07-06T02:01:50;93027.88;;;19.17;100.00
6204;BME280;3135;42.602;23.468;2022-07-06T02:04:15;93034.28;;;19.24;100.00
6204;BME280;3135;42.602;23.468;2022-07-06T02:06:40;93030.91;;;19.15;100.00
6204;BME280;3135;42.602;23.468;2022-07-06T02:09:06;93041.09;;;19.30;100.00
6204;BME280;3135;42.602;23.468;2022-07-06T02:11:31;93016.25;;;19.16;100.00
6204;BME280;3135;42.602;23.468;2022-07-06T02:13:57;93042.00;;;19.34;100.00
6204;BME280;3135;42.602;23.468;2022-07-06T02:16:22;93045.16;;;19.36;100.00
6204;BME280;3135;42.602;23.468;2022-07-06T02:18:48;93040.19;;;19.38;100.00
6204;BME280;3135;42.602;23.468;2022-07-06T02:21:13;93035.13;;;19.61;100.00
6204;BME280;3135;42.602;23.468;2022-07-06T02:23:39;93047.13;;;19.73;100.00
6204;BME280;3135;42.602;23.468;2022-07-06T02:26:04;93056.81;;;19.61;100.00
6204;BME280;3135;42.602;23.468;2022-07-06T02:28:30;93047.88;;;19.49;100.00
6204;BME280;3135;42.602;23.468;2022-07-06T02:30:55;93071.03;;;19.46;100.00
6204;BME280;3135;42.602;23.468;2022-07-06T02:33:21;93051.25;;;19.21;100.00
6204;BME280;3135;42.602;23.468;2022-07-06T02:35:46;93058.09;;;19.19;100.00
6204;BME280;3135;42.602;23.468;2022-07-06T02:38:12;93041.53;;;19.20;100.00
6204;BME280;3135;42.602;23.468;2022-07-06T02:40:38;93032.50;;;19.28;100.00
6204;BME280;3135;42.602;23.468;2022-07-06T02:43:04;93055.88;;;19.33;100.00
6204;BME280;3135;42.602;23.468;2022-07-06T02:45:30;93052.50;;;19.36;100.00
6204;BME280;3135;42.602;23.468;2022-07-06T02:47:55;93045.59;;;19.26;100.00
6204;BME280;3135;42.602;23.468;2022-07-06T02:50:23;93039.25;;;19.22;100.00
6204;BME280;3135;42.602;23.468;2022-07-06T02:52:48;93046.06;;;19.40;100.00
6204;BME280;3135;42.602;23.468;2022-07-06T02:55:14;93054.94;;;19.62;100.00
6204;BME280;3135;42.602;23.468;2022-07-06T02:57:40;93054.31;;;19.56;100.00
6204;BME280;3135;42.602;23.468;2022-07-06T03:00:07;93039.84;;;19.40;100.00
6204;BME280;3135;42.602;23.468;2022-07-06T03:02:33;93038.63;;;19.50;100.00
6204;BME280;3135;42.602;23.468;2022-07-06T03:04:58;93034.50;;;19.19;100.00
6204;BME280;3135;42.602;23.468;2022-07-06T03:07:24;93035.66;;;19.30;100.00
6204;BME280;3135;42.602;23.468;2022-07-06T03:09:49;93047.03;;;19.24;100.00
6204;BME280;3135;42.602;23.468;2022-07-06T03:12:14;93038.38;;;19.30;100.00
6204;BME280;3135;42.602;23.468;2022-07-06T03:14:41;93032.28;;;19.21;100.00
6204;BME280;3135;42.602;23.468;2022-07-06T03:17:07;93041.06;;;19.18;100.00
6204;BME280;3135;42.602;23.468;2022-07-06T03:19:32;93047.56;;;19.05;100.00
6204;BME280;3135;42.602;23.468;2022-07-06T03:21:58;93038.44;;;19.09;100.00
6204;BME280;3135;42.602;23.468;2022-07-06T03:24:23;93038.22;;;19.14;100.00
6204;BME280;3135;42.602;23.468;2022-07-06T03:26:49;93034.47;;;18.95;100.00
6204;BME280;3135;42.602;23.468;2022-07-06T03:29:14;93035.88;;;19.13;100.00
6204;BME280;3135;42.602;23.468;2022-07-06T03:31:40;93051.47;;;19.40;100.00
6204;BME280;3135;42.602;23.468;2022-07-06T03:34:05;93066.50;;;19.50;100.00
6204;BME280;3135;42.602;23.468;2022-07-06T03:36:31;93036.81;;;19.29;100.00
6204;BME280;3135;42.602;23.468;2022-07-06T03:38:57;93064.25;;;19.52;100.00
6204;BME280;3135;42.602;23.468;2022-07-06T03:41:22;93053.41;;;19.40;100.00
6204;BME280;3135;42.602;23.468;2022-07-06T03:43:48;93073.09;;;19.61;100.00
6204;BME280;3135;42.602;23.468;2022-07-06T03:46:13;93063.69;;;19.59;100.00
6204;BME280;3135;42.602;23.468;2022-07-06T03:48:39;93071.34;;;19.57;100.00
6204;BME280;3135;42.602;23.468;2022-07-06T03:51:04;93070.91;;;19.55;100.00
6204;BME280;3135;42.602;23.468;2022-07-06T03:53:30;93079.38;;;19.41;100.00
6204;BME280;3135;42.602;23.468;2022-07-06T03:55:56;93075.31;;;19.35;100.00
6204;BME280;3135;42.602;23.468;2022-07-06T03:58:40;93065.47;;;19.30;100.00
6204;BME280;3135;42.602;23.468;2022-07-06T04:01:05;93076.28;;;19.18;100.00
6204;BME280;3135;42.602;23.468;2022-07-06T04:03:30;93062.72;;;19.06;100.00
6204;BME280;3135;42.602;23.468;2022-07-06T04:05:56;93068.63;;;19.20;100.00
6204;BME280;3135;42.602;23.468;2022-07-06T04:08:21;93065.66;;;19.01;100.00
6204;BME280;3135;42.602;23.468;2022-07-06T04:10:47;93057.72;;;18.96;100.00
6204;BME280;3135;42.602;23.468;2022-07-06T04:13:12;93067.75;;;18.83;100.00
6204;BME280;3135;42.602;23.468;2022-07-06T04:15:38;93077.72;;;19.03;100.00
6204;BME280;3135;42.602;23.468;2022-07-06T04:18:04;93087.63;;;18.99;100.00
6204;BME280;3135;42.602;23.468;2022-07-06T04:20:30;93088.94;;;19.26;100.00
6204;BME280;3135;42.602;23.468;2022-07-06T04:22:55;93057.72;;;18.96;100.00
6204;BME280;3135;42.602;23.468;2022-07-06T04:25:21;93087.09;;;19.06;100.00
6204;BME280;3135;42.602;23.468;2022-07-06T04:27:46;93076.84;;;19.11;100.00
6204;BME280;3135;42.602;23.468;2022-07-06T04:30:12;93077.19;;;19.22;100.00
6204;BME280;3135;42.602;23.468;2022-07-06T04:32:37;93083.88;;;19.25;100.00
6204;BME280;3135;42.602;23.468;2022-07-06T04:35:04;93090.75;;;19.22;100.00
6204;BME280;3135;42.602;23.468;2022-07-06T04:37:30;93082.41;;;19.15;100.00
6204;BME280;3135;42.602;23.468;2022-07-06T04:39:56;93078.25;;;19.30;100.00
6204;BME280;3135;42.602;23.468;2022-07-06T04:42:21;93044.56;;;19.19;100.00
6204;BME280;3135;42.602;23.468;2022-07-06T04:44:46;93090.31;;;19.32;100.00
6204;BME280;3135;42.602;23.468;2022-07-06T04:47:12;93082.75;;;19.26;100.00
6204;BME280;3135;42.602;23.468;2022-07-06T04:49:38;93084.66;;;19.37;100.00
6204;BME280;3135;42.602;23.468;2022-07-06T04:52:04;93096.41;;;19.41;100.00
6204;BME280;3135;42.602;23.468;2022-07-06T04:54:30;93084.13;;;19.44;100.00
6204;BME280;3135;42.602;23.468;2022-07-06T04:56:55;93108.81;;;19.63;100.00
6204;BME280;3135;42.602;23.468;2022-07-06T04:59:21;93100.75;;;19.55;100.00
6204;BME280;3135;42.602;23.468;2022-07-06T05:01:47;93108.34;;;19.74;100.00
6204;BME280;3135;42.602;23.468;2022-07-06T05:04:12;93121.47;;;19.84;100.00
6204;BME280;3135;42.602;23.468;2022-07-06T05:06:38;93122.88;;;19.57;100.00
6204;BME280;3135;42.602;23.468;2022-07-06T05:09:05;93136.09;;;19.58;100.00
6204;BME280;3135;42.602;23.468;2022-07-06T05:11:30;93135.72;;;19.35;100.00
6204;BME280;3135;42.602;23.468;2022-07-06T05:13:55;93139.56;;;19.34;100.00
6204;BME280;3135;42.602;23.468;2022-07-06T05:16:21;93140.22;;;19.31;100.00
6204;BME280;3135;42.602;23.468;2022-07-06T05:18:47;93112.16;;;19.03;100.00
6204;BME280;3135;42.602;23.468;2022-07-06T05:21:12;93131.75;;;19.00;100.00
6204;BME280;3135;42.602;23.468;2022-07-06T05:23:38;93141.66;;;18.96;100.00
6204;BME280;3135;42.602;23.468;2022-07-06T05:26:03;93147.59;;;19.10;100.00
6204;BME280;3135;42.602;23.468;2022-07-06T05:28:29;93155.47;;;19.03;100.00
6204;BME280;3135;42.602;23.468;2022-07-06T05:30:54;93147.28;;;18.90;100.00
6204;BME280;3135;42.602;23.468;2022-07-06T05:33:20;93109.66;;;18.56;100.00
6204;BME280;3135;42.602;23.468;2022-07-06T05:35:45;93155.81;;;18.80;100.00
6204;BME280;3135;42.602;23.468;2022-07-06T05:38:11;93167.59;;;18.84;100.00
6204;BME280;3135;42.602;23.468;2022-07-06T05:40:36;93148.25;;;18.44;100.00
6204;BME280;3135;42.602;23.468;2022-07-06T05:43:02;93154.75;;;18.52;100.00
6204;BME280;3135;42.602;23.468;2022-07-06T05:45:28;93170.59;;;18.62;100.00
6204;BME280;3135;42.602;23.468;2022-07-06T05:47:53;93175.25;;;18.82;100.00
6204;BME280;3135;42.602;23.468;2022-07-06T05:50:37;93172.00;;;18.89;100.00
6204;BME280;3135;42.602;23.468;2022-07-06T05:53:05;93162.75;;;18.90;100.00
6204;BME280;3135;42.602;23.468;2022-07-06T05:55:31;93154.97;;;18.88;100.00
6204;BME280;3135;42.602;23.468;2022-07-06T05:57:56;93161.75;;;19.15;100.00
6204;BME280;3135;42.602;23.468;2022-07-06T06:00:23;93167.31;;;19.31;100.00
6204;BME280;3135;42.602;23.468;2022-07-06T06:02:49;93171.16;;;19.30;100.00
6204;BME280;3135;42.602;23.468;2022-07-06T06:05:15;93107.44;;;18.79;100.00
6204;BME280;3135;42.602;23.468;2022-07-06T06:07:41;93178.16;;;19.31;100.00
6204;BME280;3135;42.602;23.468;2022-07-06T06:10:11;93173.38;;;19.16;100.00
6204;BME280;3135;42.602;23.468;2022-07-06T06:12:39;93150.50;;;19.05;100.00
6204;BME280;3135;42.602;23.468;2022-07-06T06:15:05;93176.59;;;19.30;100.00
6204;BME280;3135;42.602;23.468;2022-07-06T06:17:31;93124.56;;;19.04;100.00
6204;BME280;3135;42.602;23.468;2022-07-06T06:19:57;93111.72;;;19.13;100.00
6204;BME280;3135;42.602;23.468;2022-07-06T06:22:23;93142.47;;;19.29;100.00
6204;BME280;3135;42.602;23.468;2022-07-06T06:24:49;93151.09;;;19.44;100.00
6204;BME280;3135;42.602;23.468;2022-07-06T06:27:15;93132.44;;;19.42;100.00
6204;BME280;3135;42.602;23.468;2022-07-06T06:29:40;93168.91;;;19.78;100.00
6204;BME280;3135;42.602;23.468;2022-07-06T06:32:10;93170.84;;;19.77;100.00
6204;BME280;3135;42.602;23.468;2022-07-06T06:34:36;93150.50;;;19.83;100.00
6204;BME280;3135;42.602;23.468;2022-07-06T06:37:02;93140.09;;;19.98;100.00
6204;BME280;3135;42.602;23.468;2022-07-06T06:39:28;93150.94;;;19.85;100.00
6204;BME280;3135;42.602;23.468;2022-07-06T06:41:53;93155.69;;;19.88;100.00
6204;BME280;3135;42.602;23.468;2022-07-06T06:44:19;93153.56;;;19.94;100.00
6204;BME280;3135;42.602;23.468;2022-07-06T06:46:44;93159.56;;;20.00;100.00
6204;BME280;3135;42.602;23.468;2022-07-06T06:49:10;93161.16;;;20.01;100.00
6204;BME280;3135;42.602;23.468;2022-07-06T06:51:35;93149.38;;;20.09;100.00
6204;BME280;3135;42.602;23.468;2022-07-06T06:54:03;93147.13;;;20.23;100.00
6204;BME280;3135;42.602;23.468;2022-07-06T06:56:28;93153.00;;;20.13;100.00
6204;BME280;3135;42.602;23.468;2022-07-06T06:58:54;93170.19;;;20.17;100.00
6204;BME280;3135;42.602;23.468;2022-07-06T07:01:19;93155.34;;;20.27;100.00
6204;BME280;3135;42.602;23.468;2022-07-06T07:03:45;93113.88;;;20.02;100.00
6204;BME280;3135;42.602;23.468;2022-07-06T07:06:10;93157.53;;;20.33;100.00
6204;BME280;3135;42.602;23.468;2022-07-06T07:08:36;93088.13;;;19.96;100.00
6204;BME280;3135;42.602;23.468;2022-07-06T07:11:01;93135.09;;;20.36;100.00
6204;BME280;3135;42.602;23.468;2022-07-06T07:13:27;93118.63;;;20.29;100.00
6204;BME280;3135;42.602;23.468;2022-07-06T07:15:52;93149.59;;;20.53;100.00
6204;BME280;3135;42.602;23.468;2022-07-06T07:18:18;93119.28;;;20.26;100.00
6204;BME280;3135;42.602;23.468;2022-07-06T07:20:43;93142.91;;;20.50;100.00
6204;BME280;3135;42.602;23.468;2022-07-06T07:23:09;93128.00;;;20.56;100.00
6204;BME280;3135;42.602;23.468;2022-07-06T07:25:34;93128.63;;;20.93;100.00
6204;BME280;3135;42.602;23.468;2022-07-06T07:28:00;93153.78;;;21.31;100.00
6204;BME280;3135;42.602;23.468;2022-07-06T07:30:25;93155.25;;;21.56;100.00
6204;BME280;3135;42.602;23.468;2022-07-06T07:32:51;93164.72;;;21.78;100.00
6204;BME280;3135;42.602;23.468;2022-07-06T07:35:17;93158.25;;;21.99;100.00
6204;BME280;3135;42.602;23.468;2022-07-06T07:37:42;93126.03;;;21.69;100.00
6204;BME280;3135;42.602;23.468;2022-07-06T07:40:08;93165.97;;;21.97;100.00
6204;BME280;3135;42.602;23.468;2022-07-06T07:42:33;93157.19;;;21.87;100.00
6204;BME280;3135;42.602;23.468;2022-07-06T07:44:59;93144.38;;;21.72;100.00
6204;BME280;3135;42.602;23.468;2022-07-06T07:47:25;93142.53;;;21.76;100.00
6204;BME280;3135;42.602;23.468;2022-07-06T07:49:50;93167.91;;;21.80;100.00
6204;BME280;3135;42.602;23.468;2022-07-06T07:52:16;93134.28;;;21.57;100.00
6204;BME280;3135;42.602;23.468;2022-07-06T07:54:41;93159.28;;;22.10;100.00
6204;BME280;3135;42.602;23.468;2022-07-06T07:57:07;93154.25;;;22.43;100.00
6204;BME280;3135;42.602;23.468;2022-07-06T07:59:32;93165.31;;;22.86;100.00
6204;BME280;3135;42.602;23.468;2022-07-06T08:01:58;93164.53;;;23.20;100.00
6204;BME280;3135;42.602;23.468;2022-07-06T08:04:23;93161.00;;;23.39;100.00
6204;BME280;3135;42.602;23.468;2022-07-06T08:06:49;93173.25;;;23.49;100.00
6204;BME280;3135;42.602;23.468;2022-07-06T08:09:15;93151.97;;;23.78;100.00
6204;BME280;3135;42.602;23.468;2022-07-06T08:11:42;93154.88;;;23.65;100.00
6204;BME280;3135;42.602;23.468;2022-07-06T08:14:07;93163.06;;;23.88;100.00
6204;BME280;3135;42.602;23.468;2022-07-06T08:16:33;93158.00;;;24.10;100.00
6204;BME280;3135;42.602;23.468;2022-07-06T08:18:58;93155.25;;;24.33;100.00
6204;BME280;3135;42.602;23.468;2022-07-06T08:21:24;93154.75;;;24.50;100.00
6204;BME280;3135;42.602;23.468;2022-07-06T08:23:49;93161.31;;;24.72;100.00
6204;BME280;3135;42.602;23.468;2022-07-06T08:26:15;93158.22;;;24.47;100.00
6204;BME280;3135;42.602;23.468;2022-07-06T08:28:40;93146.75;;;24.64;100.00
6204;BME280;3135;42.602;23.468;2022-07-06T08:31:06;93160.22;;;25.07;100.00
6204;BME280;3135;42.602;23.468;2022-07-06T08:33:31;93167.22;;;25.34;100.00
6204;BME280;3135;42.602;23.468;2022-07-06T08:35:57;93165.59;;;25.60;100.00
6204;BME280;3135;42.602;23.468;2022-07-06T08:38:22;93164.78;;;25.59;100.00
6204;BME280;3135;42.602;23.468;2022-07-06T08:40:49;93171.13;;;25.33;100.00
6204;BME280;3135;42.602;23.468;2022-07-06T08:43:15;93164.13;;;25.73;100.00
6204;BME280;3135;42.602;23.468;2022-07-06T08:45:41;93158.91;;;25.94;100.00
6204;BME280;3135;42.602;23.468;2022-07-06T08:48:10;93160.63;;;26.10;100.00
6204;BME280;3135;42.602;23.468;2022-07-06T08:50:36;93167.00;;;26.21;100.00
6204;BME280;3135;42.602;23.468;2022-07-06T08:53:01;93173.16;;;26.55;100.00
6204;BME280;3135;42.602;23.468;2022-07-06T08:55:28;93155.13;;;26.10;100.00
6204;BME280;3135;42.602;23.468;2022-07-06T08:57:57;93172.97;;;26.37;100.00
6204;BME280;3135;42.602;23.468;2022-07-06T09:00:23;93147.91;;;26.90;100.00
6204;BME280;3135;42.602;23.468;2022-07-06T09:02:50;93155.19;;;26.61;100.00
6204;BME280;3135;42.602;23.468;2022-07-06T09:05:17;93171.72;;;27.41;100.00
6204;BME280;3135;42.602;23.468;2022-07-06T09:07:45;93178.81;;;27.49;98.92
6204;BME280;3135;42.602;23.468;2022-07-06T09:10:14;93161.91;;;27.47;100.00
6204;BME280;3135;42.602;23.468;2022-07-06T09:12:39;93175.84;;;27.97;95.40
6204;BME280;3135;42.602;23.468;2022-07-06T09:15:05;93148.56;;;27.42;94.05
6204;BME280;3135;42.602;23.468;2022-07-06T09:17:31;93179.72;;;27.89;90.16
6204;BME280;3135;42.602;23.468;2022-07-06T09:19:57;93164.13;;;28.36;90.74
6204;BME280;3135;42.602;23.468;2022-07-06T09:22:29;93167.28;;;28.56;89.05
6204;BME280;3135;42.602;23.468;2022-07-06T09:25:06;93175.44;;;29.17;89.28
6204;BME280;3135;42.602;23.468;2022-07-06T09:27:40;93175.88;;;28.90;85.73
6204;BME280;3135;42.602;23.468;2022-07-06T09:30:07;93172.72;;;28.17;87.61
6204;BME280;3135;42.602;23.468;2022-07-06T09:33:06;93128.75;;;28.17;85.92
6204;BME280;3135;42.602;23.468;2022-07-06T09:35:37;93165.25;;;28.07;89.02
6204;BME280;3135;42.602;23.468;2022-07-06T09:40:35;93163.72;;;28.77;89.39
6204;BME280;3135;42.602;23.468;2022-07-06T09:43:12;93168.75;;;29.21;83.61
6204;BME280;3135;42.602;23.468;2022-07-06T09:45:40;93120.13;;;28.72;86.13
6204;BME280;3135;42.602;23.468;2022-07-06T09:48:27;93161.38;;;28.50;85.54
6204;BME280;3135;42.602;23.468;2022-07-06T09:50:55;93152.69;;;28.13;89.74
6204;BME280;3135;42.602;23.468;2022-07-06T09:53:23;93148.38;;;27.90;92.41
6204;BME280;3135;42.602;23.468;2022-07-06T09:55:54;93149.13;;;27.87;92.57
6204;BME280;3135;42.602;23.468;2022-07-06T09:58:21;93149.03;;;27.59;89.86
6204;BME280;3135;42.602;23.468;2022-07-06T10:00:48;93155.41;;;27.77;92.67
6204;BME280;3135;42.602;23.468;2022-07-06T10:03:16;93125.88;;;27.56;91.72
6204;BME280;3135;42.602;23.468;2022-07-06T10:05:45;93112.19;;;27.63;93.89
6204;BME280;3135;42.602;23.468;2022-07-06T10:08:13;93144.16;;;27.13;92.49
6204;BME280;3135;42.602;23.468;2022-07-06T10:10:40;93141.28;;;26.91;95.52
6204;BME280;3135;42.602;23.468;2022-07-06T10:13:07;93115.94;;;27.12;92.55
6204;BME280;3135;42.602;23.468;2022-07-06T10:15:35;93150.63;;;27.70;91.54
6204;BME280;3135;42.602;23.468;2022-07-06T10:18:07;93108.78;;;27.00;91.65
6204;BME280;3135;42.602;23.468;2022-07-06T10:20:36;93143.47;;;27.37;91.39
6204;BME280;3135;42.602;23.468;2022-07-06T10:23:04;93133.50;;;27.04;93.16
6204;BME280;3135;42.602;23.468;2022-07-06T10:25:31;93140.66;;;27.16;94.09
6204;BME280;3135;42.602;23.468;2022-07-06T10:27:58;93125.34;;;27.15;91.77
6204;BME280;3135;42.602;23.468;2022-07-06T10:30:25;93133.59;;;27.15;92.18
6204;BME280;3135;42.602;23.468;2022-07-06T10:32:51;93097.97;;;27.33;89.93
6204;BME280;3135;42.602;23.468;2022-07-06T10:35:20;93130.44;;;27.13;91.69
6204;BME280;3135;42.602;23.468;2022-07-06T10:38:05;93126.41;;;26.99;91.61
6204;BME280;3135;42.602;23.468;2022-07-06T10:40:33;93126.91;;;27.12;92.94
6204;BME280;3135;42.602;23.468;2022-07-06T10:43:17;93117.94;;;27.26;91.95
6204;BME280;3135;42.602;23.468;2022-07-06T10:50:40;93116.53;;;27.75;88.35
6204;BME280;3135;42.602;23.468;2022-07-06T10:55:44;93132.69;;;28.34;86.20
6204;BME280;3135;42.602;23.468;2022-07-06T10:58:34;93124.03;;;28.21;86.23
6204;BME280;3135;42.602;23.468;2022-07-06T11:01:00;93103.59;;;27.79;84.39
6204;BME280;3135;42.602;23.468;2022-07-06T11:08:58;93127.97;;;28.77;80.78
6204;BME280;3135;42.602;23.468;2022-07-06T11:14:01;93140.53;;;28.21;83.49
6204;BME280;3135;42.602;23.468;2022-07-06T11:16:28;93105.19;;;28.12;82.95
6204;BME280;3135;42.602;23.468;2022-07-06T11:19:05;93122.91;;;28.40;84.07
6204;BME280;3135;42.602;23.468;2022-07-06T11:21:53;93119.97;;;29.33;84.82
6204;BME280;3135;42.602;23.468;2022-07-06T11:24:32;93106.25;;;29.15;83.33
6204;BME280;3135;42.602;23.468;2022-07-06T11:26:59;93117.69;;;29.13;82.01
6204;BME280;3135;42.602;23.468;2022-07-06T11:29:28;93121.69;;;28.73;81.29
6204;BME280;3135;42.602;23.468;2022-07-06T11:31:56;93121.28;;;28.64;81.69
6204;BME280;3135;42.602;23.468;2022-07-06T11:34:27;93109.94;;;28.47;84.70
6204;BME280;3135;42.602;23.468;2022-07-06T11:37:21;93115.03;;;28.67;84.25
6204;BME280;3135;42.602;23.468;2022-07-06T11:39:48;93111.03;;;29.03;79.99
6204;BME280;3135;42.602;23.468;2022-07-06T11:42:15;93076.13;;;28.50;81.86
6204;BME280;3135;42.602;23.468;2022-07-06T11:44:42;93061.22;;;28.16;81.92
6204;BME280;3135;42.602;23.468;2022-07-06T11:47:09;93104.41;;;28.33;80.75
6204;BME280;3135;42.602;23.468;2022-07-06T11:49:37;93095.78;;;28.06;81.76
6204;BME280;3135;42.602;23.468;2022-07-06T11:52:10;93096.56;;;28.24;81.12
6204;BME280;3135;42.602;23.468;2022-07-06T11:54:36;93089.44;;;27.70;83.77
6204;BME280;3135;42.602;23.468;2022-07-06T11:57:02;93061.63;;;27.86;82.74
6204;BME280;3135;42.602;23.468;2022-07-06T11:59:36;93069.88;;;28.21;81.84
6204;BME280;3135;42.602;23.468;2022-07-06T12:02:07;93082.00;;;28.67;82.00
6204;BME280;3135;42.602;23.468;2022-07-06T12:04:35;93069.03;;;28.71;79.45
6204;BME280;3135;42.602;23.468;2022-07-06T12:07:03;93083.59;;;28.53;83.07
6204;BME280;3135;42.602;23.468;2022-07-06T12:09:37;93083.16;;;28.69;81.26
6204;BME280;3135;42.602;23.468;2022-07-06T12:12:03;93077.69;;;28.66;82.26
6204;BME280;3135;42.602;23.468;2022-07-06T12:14:31;93084.34;;;28.68;79.04
6204;BME280;3135;42.602;23.468;2022-07-06T12:17:03;93076.91;;;28.51;79.00
6204;BME280;3135;42.602;23.468;2022-07-06T12:19:29;93083.13;;;28.87;80.38
6204;BME280;3135;42.602;23.468;2022-07-06T12:21:54;93075.25;;;29.00;80.35
6204;BME280;3135;42.602;23.468;2022-07-06T12:24:26;93080.00;;;28.85;79.07
6204;BME280;3135;42.602;23.468;2022-07-06T12:26:58;93081.56;;;28.97;76.12
6204;BME280;3135;42.602;23.468;2022-07-06T12:29:24;93085.13;;;28.65;77.94
6204;BME280;3135;42.602;23.468;2022-07-06T12:31:54;93086.75;;;28.16;78.29
6204;BME280;3135;42.602;23.468;2022-07-06T12:34:25;93073.41;;;28.36;79.88
6204;BME280;3135;42.602;23.468;2022-07-06T12:36:55;93090.19;;;28.88;79.37
6204;BME280;3135;42.602;23.468;2022-07-06T12:39:23;93085.56;;;28.24;79.27
6204;BME280;3135;42.602;23.468;2022-07-06T12:41:52;93086.78;;;28.34;78.24
6204;BME280;3135;42.602;23.468;2022-07-06T12:44:22;93080.84;;;28.46;77.31
6204;BME280;3135;42.602;23.468;2022-07-06T12:47:09;93087.38;;;29.20;77.46
6204;BME280;3135;42.602;23.468;2022-07-06T12:49:36;93076.34;;;29.20;77.72
6204;BME280;3135;42.602;23.468;2022-07-06T12:52:15;93080.16;;;29.44;74.43
6204;BME280;3135;42.602;23.468;2022-07-06T12:54:49;93073.28;;;29.04;76.49
6204;BME280;3135;42.602;23.468;2022-07-06T12:57:20;93082.75;;;29.80;72.59
6204;BME280;3135;42.602;23.468;2022-07-06T12:59:55;93078.50;;;29.68;71.28
6204;BME280;3135;42.602;23.468;2022-07-06T13:02:32;93072.63;;;29.59;71.13
6204;BME280;3135;42.602;23.468;2022-07-06T13:05:07;93071.44;;;29.64;71.49
6204;BME280;3135;42.602;23.468;2022-07-06T13:07:36;93065.16;;;29.63;72.05
6204;BME280;3135;42.602;23.468;2022-07-06T13:10:05;93060.59;;;29.28;73.95
6204;BME280;3135;42.602;23.468;2022-07-06T13:12:31;93063.28;;;29.39;74.15
6204;BME280;3135;42.602;23.468;2022-07-06T13:14:57;93063.63;;;29.48;73.48
6204;BME280;3135;42.602;23.468;2022-07-06T13:17:23;93060.13;;;29.40;74.19
6204;BME280;3135;42.602;23.468;2022-07-06T13:19:49;93051.16;;;29.29;72.70
6204;BME280;3135;42.602;23.468;2022-07-06T13:22:14;93055.16;;;29.14;72.99